Time;durP1;ratioP1;P1;durP2;ratioP2;P2;SDS_P1;SDS_P2;PMS_P1;PMS_P2;Temp;Humidity;BMP_temperature;BMP_pressure;BME280_temperature;BME280_humidity;BME280_pressure;Samples;Min_cycle;Max_cycle;Signal;HPM_P1;HPM_P2
2023/10/17 00:01:10;;;;;;;23.90;7.90;;;;;;;9.00;51.53;99383.52;67888;1273;1016361;-65
2023/10/17 00:04:32;;;;;;;28.20;9.40;;;;;;;8.93;51.43;99384.59;67863;1273;1016263;-65
2023/10/17 00:07:35;;;;;;;28.20;9.50;;;;;;;8.91;51.81;99381.67;67912;1273;1016339;-65
2023/10/17 00:10:41;;;;;;;23.50;7.80;;;;;;;8.96;51.46;99379.86;67881;1273;1016379;-64
2023/10/17 00:13:59;;;;;;;22.80;7.50;;;;;;;8.90;51.12;99378.40;67940;1273;1016396;-62
2023/10/17 00:17:03;;;;;;;23.40;8.00;;;;;;;8.98;51.02;99377.86;67886;1273;1016408;-64
2023/10/17 00:20:16;;;;;;;21.80;7.60;;;;;;;9.07;51.20;99377.81;67930;1273;1016412;-64
2023/10/17 00:23:20;;;;;;;27.70;9.40;;;;;;;9.05;50.97;99377.02;67888;1273;1015807;-64
2023/10/17 00:26:23;;;;;;;29.80;10.00;;;;;;;8.94;51.07;99380.31;67961;1273;1017187;-65
2023/10/17 00:29:26;;;;;;;29.10;10.20;;;;;;;8.75;51.43;99380.12;67944;1273;1019211;-65
2023/10/17 00:32:31;;;;;;;106.10;33.60;;;;;;;8.53;50.81;99379.67;67887;1273;1016266;-65
2023/10/17 00:35:38;;;;;;;55.10;18.60;;;;;;;8.39;51.10;99378.55;67871;1273;1016403;-63
2023/10/17 00:38:43;;;;;;;41.50;13.20;;;;;;;8.22;51.04;99379.76;67893;1273;1018351;-64
2023/10/17 00:41:50;;;;;;;32.40;11.50;;;;;;;8.12;51.43;99383.48;67879;1273;1016300;-64
2023/10/17 00:44:53;;;;;;;30.80;10.20;;;;;;;8.09;51.34;99386.05;67937;1273;1016346;-64
2023/10/17 00:47:55;;;;;;;26.40;9.40;;;;;;;8.09;51.53;99385.87;67909;1273;1016090;-63
2023/10/17 00:51:07;;;;;;;27.60;11.80;;;;;;;7.93;51.42;99385.86;67867;1273;1018201;-64
2023/10/17 00:54:17;;;;;;;28.10;9.80;;;;;;;7.85;51.55;99387.40;67880;1273;1016258;-64
2023/10/17 00:57:21;;;;;;;27.90;9.50;;;;;;;7.69;51.30;99389.98;67871;1273;1016433;-63
2023/10/17 01:00:35;;;;;;;27.90;9.20;;;;;;;7.42;51.74;99384.05;67899;1273;1016294;-65
2023/10/17 01:03:41;;;;;;;27.00;8.00;;;;;;;7.40;51.90;99382.38;67871;1273;1016432;-64
2023/10/17 01:06:45;;;;;;;25.90;8.00;;;;;;;7.51;52.12;99381.60;67887;1273;1016409;-65
2023/10/17 01:09:48;;;;;;;31.70;10.60;;;;;;;7.55;51.75;99384.55;67940;1273;1016234;-65
2023/10/17 01:12:52;;;;;;;32.70;10.70;;;;;;;7.64;51.96;99385.27;67924;1273;1015836;-63
2023/10/17 01:15:57;;;;;;;33.30;10.30;;;;;;;7.70;51.72;99386.80;67928;1273;1018674;-65
2023/10/17 01:19:04;;;;;;;24.50;8.40;;;;;;;7.80;51.76;99381.17;67916;1273;1016579;-64
2023/10/17 01:22:07;;;;;;;27.00;10.30;;;;;;;7.84;51.59;99376.46;67917;1273;1016381;-65
2023/10/17 01:25:19;;;;;;;29.10;10.30;;;;;;;7.77;51.45;99376.73;67946;1273;1019112;-65
2023/10/17 01:28:21;;;;;;;24.40;8.00;;;;;;;7.65;51.08;99379.66;67909;1273;1016443;-63
2023/10/17 01:31:24;;;;;;;26.20;8.80;;;;;;;7.47;51.04;99384.40;67859;1273;1016306;-65
2023/10/17 01:34:27;;;;;;;32.60;10.10;;;;;;;7.25;51.54;99384.02;67928;1273;1015641;-64
2023/10/17 01:37:30;;;;;;;26.40;8.60;;;;;;;7.13;51.58;99386.37;67886;1273;1016323;-64
2023/10/17 01:40:32;;;;;;;24.00;7.80;;;;;;;7.11;51.72;99381.23;67889;1273;1016400;-63
2023/10/17 01:43:40;;;;;;;25.50;8.60;;;;;;;7.06;51.67;99391.70;67892;1251;1016376;-64
2023/10/17 01:46:43;;;;;;;21.30;6.60;;;;;;;7.04;51.60;99392.62;67891;1273;1016403;-64
2023/10/17 01:49:46;;;;;;;22.70;7.70;;;;;;;7.08;52.03;99389.88;67904;1273;1016393;-65
2023/10/17 01:52:50;;;;;;;26.90;8.30;;;;;;;7.33;51.78;99389.98;67843;1273;1016509;-64
2023/10/17 01:56:06;;;;;;;37.50;11.90;;;;;;;7.38;51.33;99391.85;67884;1273;1016387;-65
2023/10/17 01:59:13;;;;;;;101.00;34.10;;;;;;;7.19;51.51;99400.77;67912;1273;1016259;-65
2023/10/17 02:02:15;;;;;;;49.30;16.60;;;;;;;7.09;51.33;99399.55;67905;1273;1016386;-65
2023/10/17 02:05:18;;;;;;;28.40;8.10;;;;;;;7.08;51.88;99401.68;67914;1273;1016905;-65
2023/10/17 02:08:22;;;;;;;25.10;8.50;;;;;;;7.07;51.78;99404.84;67851;1273;1016409;-63
2023/10/17 02:11:24;;;;;;;28.50;9.80;;;;;;;7.03;51.68;99406.04;67900;1273;1016280;-65
2023/10/17 02:14:26;;;;;;;26.80;8.10;;;;;;;6.88;51.48;99413.90;67866;1273;1016426;-65
2023/10/17 02:17:29;;;;;;;26.70;8.90;;;;;;;6.86;51.57;99415.00;67974;1273;1016377;-64
2023/10/17 02:20:34;;;;;;;33.60;9.20;;;;;;;6.77;51.37;99415.86;67951;1273;1016528;-64
2023/10/17 02:23:49;;;;;;;31.80;11.70;;;;;;;6.67;51.63;99416.55;67878;1273;1016434;-64
2023/10/17 02:26:56;;;;;;;32.50;10.90;;;;;;;6.64;51.51;99418.05;67889;1273;1016456;-62
2023/10/17 02:29:59;;;;;;;29.60;10.70;;;;;;;6.57;51.85;99419.68;67888;1251;1016104;-65
2023/10/17 02:33:10;;;;;;;28.60;9.00;;;;;;;6.65;51.83;99425.52;67940;1273;1015847;-64
2023/10/17 02:36:13;;;;;;;27.90;8.60;;;;;;;6.71;52.15;99426.31;67874;1273;1016295;-62
2023/10/17 02:39:16;;;;;;;28.60;9.40;;;;;;;6.86;52.08;99424.56;67939;1273;1016228;-65
2023/10/17 02:42:18;;;;;;;22.80;7.70;;;;;;;6.93;52.08;99427.29;67884;1273;1016352;-65
2023/10/17 02:45:26;;;;;;;;;;;;;;;6.90;51.58;99426.52;67896;1273;1016395;-61
2023/10/17 02:48:28;;;;;;;30.10;10.30;;;;;;;6.74;52.01;99430.04;67921;1273;1015927;-64
2023/10/17 02:51:34;;;;;;;;;;;;;;;6.74;51.92;99432.14;67895;1273;1016717;-65
2023/10/17 02:54:55;;;;;;;26.70;8.10;;;;;;;6.67;51.67;99435.50;67860;1273;1016460;-64
2023/10/17 02:57:58;;;;;;;28.70;8.50;;;;;;;6.55;51.75;99438.03;67922;1273;1016376;-63
2023/10/17 03:01:01;;;;;;;26.20;8.30;;;;;;;6.41;51.98;99441.09;67873;1273;1016600;-63
2023/10/17 03:04:07;;;;;;;26.90;8.80;;;;;;;6.53;52.17;99442.58;67916;1273;1016508;-63
2023/10/17 03:07:11;;;;;;;27.70;9.10;;;;;;;6.71;51.84;99434.31;67939;1273;1016355;-63
2023/10/17 03:10:20;;;;;;;32.60;10.90;;;;;;;6.72;51.83;99435.84;67900;1273;1017531;-64
2023/10/17 03:13:39;;;;;;;29.90;10.70;;;;;;;6.67;51.74;99439.70;67859;1273;1015674;-65
2023/10/17 03:16:43;;;;;;;37.90;15.60;;;;;;;6.73;51.97;99439.45;67895;1273;1016573;-64
2023/10/17 03:19:45;;;;;;;35.20;12.40;;;;;;;6.93;51.87;99442.61;67940;1273;1016217;-65
2023/10/17 03:22:50;;;;;;;32.00;12.60;;;;;;;7.01;51.72;99442.98;67910;1273;1016633;-64
2023/10/17 03:26:00;;;;;;;27.80;8.80;;;;;;;6.90;51.42;99443.54;67880;1273;1016276;-64
2023/10/17 03:29:11;;;;;;;22.60;7.40;;;;;;;6.83;51.57;99447.10;67900;1273;1016143;-62
2023/10/17 03:32:15;;;;;;;24.50;7.80;;;;;;;6.65;51.41;99449.65;67939;1273;1016408;-64
2023/10/17 03:35:20;;;;;;;25.70;7.90;;;;;;;6.55;51.42;99453.80;67945;1273;1016223;-64
2023/10/17 03:38:26;;;;;;;24.20;7.60;;;;;;;6.37;51.77;99451.29;67849;1273;1016442;-65
2023/10/17 03:41:29;;;;;;;29.30;8.70;;;;;;;6.33;51.62;99450.73;67884;1273;1016576;-64
2023/10/17 03:44:38;;;;;;;27.90;9.10;;;;;;;6.35;51.57;99451.39;67896;1273;1015947;-65
2023/10/17 03:47:42;;;;;;;27.70;9.90;;;;;;;6.26;51.73;99452.52;67973;1273;1016168;-65
2023/10/17 03:50:58;;;;;;;27.00;9.30;;;;;;;6.13;51.84;99451.41;67898;1273;1016473;-64
2023/10/17 03:54:07;;;;;;;25.60;8.80;;;;;;;6.06;51.82;99455.45;67878;1273;1016366;-61
2023/10/17 03:57:15;;;;;;;27.20;8.40;;;;;;;6.15;51.59;99454.31;67888;1273;1016403;-64
2023/10/17 04:00:25;;;;;;;24.00;8.20;;;;;;;6.10;51.72;99453.94;67888;1273;1016399;-64
2023/10/17 04:03:30;;;;;;;25.90;8.50;;;;;;;6.03;51.91;99453.98;67865;1273;1016506;-65
2023/10/17 04:06:39;;;;;;;26.10;8.70;;;;;;;5.99;52.16;99455.85;67917;1273;1016380;-64
2023/10/17 04:09:52;;;;;;;24.60;8.70;;;;;;;5.89;52.48;99455.95;67848;1273;1017241;-65
2023/10/17 04:13:17;;;;;;;30.40;9.30;;;;;;;5.99;52.31;99453.42;67914;1273;1016460;-64
2023/10/17 04:16:22;;;;;;;25.00;8.80;;;;;;;6.04;51.89;99452.39;67856;1251;1017214;-63
2023/10/17 04:19:24;;;;;;;28.80;9.20;;;;;;;5.94;51.88;99451.13;67900;1273;1016250;-64
2023/10/17 04:22:29;;;;;;;30.20;8.90;;;;;;;5.93;51.94;99449.95;67945;1273;1016486;-63
2023/10/17 04:25:34;;;;;;;26.90;8.10;;;;;;;5.97;51.92;99450.85;67865;1273;1016428;-59
2023/10/17 04:28:41;;;;;;;27.70;9.70;;;;;;;5.98;51.72;99457.27;67934;1273;1016445;-63
2023/10/17 04:31:44;;;;;;;25.60;8.70;;;;;;;5.87;51.91;99455.67;67881;1273;1016100;-61
2023/10/17 04:34:46;;;;;;;24.60;7.70;;;;;;;5.77;52.08;99455.98;67944;1273;1016636;-64
2023/10/17 04:38:09;;;;;;;25.40;7.40;;;;;;;5.78;52.15;99456.30;67889;1257;1016387;-62
2023/10/17 04:41:17;;;;;;;26.40;9.20;;;;;;;5.87;52.22;99456.20;67861;1273;1016480;-62
2023/10/17 04:44:21;;;;;;;36.40;8.90;;;;;;;6.03;51.96;99452.60;67866;1273;1016441;-63
2023/10/17 04:47:29;;;;;;;26.80;9.70;;;;;;;6.25;51.87;99452.39;67860;1273;1015872;-61
2023/10/17 04:50:44;;;;;;;31.20;10.10;;;;;;;6.39;51.35;99455.05;67837;1273;1016346;-62
2023/10/17 04:53:48;;;;;;;36.80;14.50;;;;;;;6.47;51.01;99457.41;67850;1272;1016471;-65
2023/10/17 04:56:58;;;;;;;47.70;17.60;;;;;;;6.37;51.25;99452.16;67884;1273;1016947;-64
2023/10/17 05:00:10;;;;;;;42.50;16.10;;;;;;;6.13;51.61;99453.66;67907;1273;1016416;-63
2023/10/17 05:03:26;;;;;;;31.50;11.50;;;;;;;6.18;51.57;99457.83;67913;1273;1016564;-65
2023/10/17 06:16:51;;;;;;;32.80;12.50;;;;;;;8.36;50.69;99514.06;67876;1273;1019510;-65
2023/10/17 06:19:54;;;;;;;37.60;13.00;;;;;;;8.48;50.75;99518.30;67850;1251;1016270;-64
2023/10/17 06:33:02;;;;;;;35.80;13.50;;;;;;;8.78;51.08;99529.11;67921;1273;1016250;-64
2023/10/17 06:36:13;;;;;;;35.50;13.30;;;;;;;9.06;51.14;99536.95;67905;1273;1016179;-64
2023/10/17 06:39:17;;;;;;;31.90;11.90;;;;;;;9.15;51.26;99532.40;67880;1273;1016344;-64
2023/10/17 06:42:27;;;;;;;31.10;11.70;;;;;;;9.06;51.54;99539.38;67909;1273;1016457;-65
2023/10/17 06:45:33;;;;;;;43.70;17.30;;;;;;;9.17;51.50;99539.80;67877;1273;1016254;-64
2023/10/17 06:48:36;;;;;;;39.00;14.60;;;;;;;9.42;51.43;99539.23;67908;1273;1016428;-64
2023/10/17 06:51:39;;;;;;;44.80;17.40;;;;;;;9.60;51.57;99537.52;67879;1273;1016448;-64
2023/10/17 06:54:41;;;;;;;41.40;15.20;;;;;;;9.90;51.25;99528.84;67921;1273;1016277;-64
2023/10/17 06:57:44;;;;;;;37.70;14.00;;;;;;;10.18;51.34;99529.05;67880;1273;1016401;-64
2023/10/17 07:00:51;;;;;;;38.30;13.20;;;;;;;10.67;51.36;99528.29;67932;1273;1016234;-64
2023/10/17 07:03:55;;;;;;;34.50;13.90;;;;;;;11.20;51.04;99532.10;67864;1273;1016544;-64
2023/10/17 07:07:01;;;;;;;41.00;15.80;;;;;;;11.51;50.91;99531.84;67904;1273;1018742;-64
2023/10/17 07:10:16;;;;;;;56.50;26.80;;;;;;;11.86;50.73;99533.29;67879;1273;1016352;-64
2023/10/17 07:13:22;;;;;;;54.90;23.20;;;;;;;12.11;50.55;99534.59;67924;1273;1017877;-64
2023/10/17 07:16:33;;;;;;;52.60;26.00;;;;;;;12.34;50.67;99536.08;67890;1273;1016487;-64
2023/10/17 07:19:58;;;;;;;50.40;20.80;;;;;;;12.76;50.76;99539.30;67938;1273;1016010;-62
2023/10/17 07:23:11;;;;;;;43.90;20.10;;;;;;;13.19;50.46;99540.63;67914;1273;1016546;-65
2023/10/17 07:26:17;;;;;;;44.00;19.50;;;;;;;13.54;49.89;99536.71;67894;1273;1016401;-64
2023/10/17 07:29:22;;;;;;;43.60;17.20;;;;;;;13.65;50.03;99533.59;67861;1273;1016384;-64
2023/10/17 07:32:25;;;;;;;39.90;16.80;;;;;;;13.37;50.32;99530.23;67937;1273;1016390;-64
2023/10/17 07:35:30;;;;;;;39.40;16.30;;;;;;;13.19;50.82;99532.52;67880;1273;1016425;-64
2023/10/17 07:38:33;;;;;;;30.60;11.10;;;;;;;13.16;51.32;99531.63;67876;1273;1016497;-63
2023/10/17 07:41:36;;;;;;;30.60;12.20;;;;;;;13.18;51.30;99533.97;67900;1273;1016415;-64
2023/10/17 07:44:41;;;;;;;31.50;12.60;;;;;;;13.18;51.55;99537.68;67866;1251;1016513;-64
2023/10/17 07:47:43;;;;;;;28.60;12.00;;;;;;;13.37;51.74;99535.16;67926;1273;1016104;-64
2023/10/17 07:50:46;;;;;;;30.30;12.40;;;;;;;13.74;51.65;99532.87;67884;1273;1016402;-63
2023/10/17 07:53:48;;;;;;;30.70;12.20;;;;;;;14.19;51.02;99530.91;67878;1273;1016438;-64
2023/10/17 07:56:51;;;;;;;28.00;11.00;;;;;;;14.45;50.75;99532.94;67905;1273;1016465;-64
2023/10/17 07:59:57;;;;;;;28.80;11.50;;;;;;;14.53;50.32;99530.77;67933;1273;1016119;-64
2023/10/17 08:03:00;;;;;;;26.80;10.10;;;;;;;14.58;50.58;99529.12;67916;1273;1016572;-64
2023/10/17 08:06:06;;;;;;;27.50;9.20;;;;;;;14.57;50.36;99531.98;67948;1273;1016376;-64
2023/10/17 08:09:18;;;;;;;28.00;9.30;;;;;;;14.61;50.52;99529.24;67899;1273;1016260;-64
2023/10/17 08:12:22;;;;;;;27.20;9.50;;;;;;;14.69;49.99;99536.14;67847;1273;1016415;-64
2023/10/17 08:15:30;;;;;;;26.80;9.40;;;;;;;14.69;50.16;99531.71;67877;1251;1016313;-64
2023/10/17 08:18:39;;;;;;;26.60;9.10;;;;;;;15.07;50.16;99533.19;67871;1273;1016238;-62
2023/10/17 08:21:59;;;;;;;27.30;8.30;;;;;;;15.13;49.58;99536.53;67935;1273;1016158;-61
2023/10/17 08:25:05;;;;;;;24.20;7.80;;;;;;;15.12;49.37;99536.38;67947;1273;1016334;-64
2023/10/17 08:28:17;;;;;;;23.90;8.20;;;;;;;15.49;48.11;99533.36;67887;1273;1016270;-61
2023/10/17 08:31:22;;;;;;;25.50;9.10;;;;;;;15.47;48.37;99532.23;67917;1273;1016083;-64
2023/10/17 08:34:40;;;;;;;26.30;8.70;;;;;;;15.55;49.02;99533.95;67877;1273;1016399;-64
2023/10/17 08:37:44;;;;;;;24.00;7.20;;;;;;;15.76;48.90;99534.95;67884;1273;1016581;-64
2023/10/17 08:40:49;;;;;;;21.80;7.10;;;;;;;15.99;48.99;99530.19;67888;1273;1016660;-59
2023/10/17 08:43:53;;;;;;;23.90;7.10;;;;;;;16.25;48.17;99533.02;67923;1273;1016323;-64
2023/10/17 08:46:55;;;;;;;21.40;6.70;;;;;;;16.32;47.35;99532.40;67878;1273;1016441;-64
2023/10/17 08:50:01;;;;;;;22.30;5.60;;;;;;;16.01;47.03;99542.20;67930;1273;1016659;-64
2023/10/17 08:53:06;;;;;;;23.60;6.40;;;;;;;15.87;47.25;99543.55;67902;1273;1016214;-65
2023/10/17 08:56:09;;;;;;;22.20;6.10;;;;;;;15.99;48.21;99541.66;67895;1273;1016386;-65
2023/10/17 08:59:13;;;;;;;21.10;6.10;;;;;;;16.24;46.90;99541.77;67894;1273;1016558;-65
2023/10/17 09:02:20;;;;;;;20.20;5.50;;;;;;;16.43;46.71;99536.14;67864;1273;1017059;-65
2023/10/17 09:05:27;;;;;;;17.10;4.90;;;;;;;16.76;46.64;99533.84;67890;1273;1016431;-65
2023/10/17 09:08:43;;;;;;;23.60;6.70;;;;;;;17.07;46.38;99534.23;67871;1273;1016143;-63
2023/10/17 09:12:01;;;;;;;16.00;4.10;;;;;;;17.12;44.83;99537.02;67858;1273;1017683;-65
2023/10/17 09:15:06;;;;;;;19.20;4.60;;;;;;;17.13;45.26;99537.29;67900;1273;1016495;-65
2023/10/17 09:18:09;;;;;;;18.30;4.20;;;;;;;17.22;44.97;99540.64;67895;1273;1017918;-62
2023/10/17 09:21:13;;;;;;;19.20;4.60;;;;;;;17.03;44.09;99540.36;67880;1273;1016170;-65
2023/10/17 09:24:16;;;;;;;14.40;4.10;;;;;;;17.15;44.05;99539.43;67924;1273;1016182;-64
2023/10/17 09:27:18;;;;;;;17.10;3.40;;;;;;;17.41;44.55;99537.65;67927;1273;1016397;-64
2023/10/17 09:30:23;;;;;;;15.60;3.80;;;;;;;17.58;43.99;99537.02;67911;1273;1016299;-65
2023/10/17 09:33:27;;;;;;;13.60;3.40;;;;;;;17.79;43.26;99537.43;67882;1273;1016173;-65
2023/10/17 09:36:29;;;;;;;17.00;3.90;;;;;;;17.81;43.08;99533.73;67847;1273;1016828;-65
2023/10/17 09:39:32;;;;;;;18.70;3.60;;;;;;;18.18;44.53;99528.91;67914;1273;1017701;-64
2023/10/17 09:42:35;;;;;;;16.20;3.20;;;;;;;18.95;44.32;99527.61;67899;1273;1017194;-65
2023/10/17 09:45:41;;;;;;;11.40;3.00;;;;;;;19.28;42.41;99530.40;67865;1273;1016643;-65
2023/10/17 09:48:44;;;;;;;15.20;3.20;;;;;;;19.25;39.91;99528.31;67863;1273;1016374;-65
2023/10/17 09:51:46;;;;;;;16.40;3.20;;;;;;;18.99;40.56;99521.17;67956;1273;1016239;-65
2023/10/17 09:54:51;;;;;;;13.30;3.10;;;;;;;18.97;39.79;99522.59;67923;1273;1016371;-65
2023/10/17 09:57:54;;;;;;;16.50;3.60;;;;;;;19.21;41.52;99516.76;67912;1273;1016358;-65
2023/10/17 10:00:56;;;;;;;13.80;3.40;;;;;;;19.62;40.08;99518.39;67953;1273;1016309;-66
2023/10/17 10:04:01;;;;;;;11.70;3.00;;;;;;;19.88;40.77;99511.00;67901;1273;1016481;-64
2023/10/17 10:07:03;;;;;;;12.20;2.60;;;;;;;19.66;38.99;99510.63;67875;1273;1016423;-65
2023/10/17 10:10:09;;;;;;;12.60;2.90;;;;;;;19.44;40.08;99507.37;67894;1273;1016368;-64
2023/10/17 10:13:14;;;;;;;12.80;2.70;;;;;;;19.79;39.36;99508.45;67898;1273;1016439;-65
2023/10/17 10:16:16;;;;;;;13.00;2.60;;;;;;;19.92;39.18;99503.92;67945;1273;1018544;-63
2023/10/17 10:19:18;;;;;;;16.00;3.00;;;;;;;19.73;37.69;99503.80;67959;1273;1016411;-65
2023/10/17 10:22:21;;;;;;;11.70;2.70;;;;;;;18.98;38.21;99501.52;67889;1273;1016421;-64
2023/10/17 10:25:25;;;;;;;9.20;2.30;;;;;;;18.70;39.39;99495.00;67953;1273;1016043;-64
2023/10/17 10:28:31;;;;;;;10.20;2.20;;;;;;;18.68;38.78;99490.40;67945;1273;1017307;-64
2023/10/17 10:31:33;;;;;;;12.80;2.20;;;;;;;18.87;37.98;99492.58;67907;1273;1016189;-62
2023/10/17 10:34:36;;;;;;;8.50;2.20;;;;;;;18.73;38.84;99489.48;67913;1273;1016275;-64
2023/10/17 10:37:39;;;;;;;13.40;3.10;;;;;;;18.85;38.64;99490.80;67927;1273;1016035;-65
2023/10/17 10:40:41;;;;;;;13.60;3.00;;;;;;;18.69;39.09;99485.72;67885;1273;1016224;-65
2023/10/17 10:43:44;;;;;;;;;;;;;;;18.80;38.84;99482.84;67886;1273;1016332;-65
2023/10/17 10:46:46;;;;;;;12.90;3.00;;;;;;;18.82;39.02;99480.20;67912;1273;1016342;-65
2023/10/17 10:49:49;;;;;;;17.90;3.60;;;;;;;19.31;39.52;99481.14;67942;1273;1016363;-64
2023/10/17 10:52:52;;;;;;;13.80;3.00;;;;;;;20.08;39.13;99470.30;67907;1273;1016410;-65
2023/10/17 10:55:55;;;;;;;9.70;2.20;;;;;;;20.74;38.22;99465.05;67943;1273;1016352;-64
2023/10/17 10:58:58;;;;;;;10.40;2.70;;;;;;;20.62;36.36;99462.20;67928;1273;1016434;-65
2023/10/17 11:02:01;;;;;;;12.10;3.00;;;;;;;21.03;36.57;99460.39;67942;1273;1016599;-65
2023/10/17 11:05:04;;;;;;;8.60;2.50;;;;;;;20.97;35.64;99455.42;67875;1273;1016432;-62
2023/10/17 11:08:07;;;;;;;16.00;3.20;;;;;;;20.58;34.99;99451.59;67914;1273;1016448;-64
2023/10/17 11:11:10;;;;;;;12.80;2.80;;;;;;;20.58;35.94;99451.04;67904;1273;1016391;-65
2023/10/17 11:14:13;;;;;;;9.50;2.50;;;;;;;20.68;35.64;99442.33;67917;1273;1016070;-65
2023/10/17 11:17:15;;;;;;;11.80;3.20;;;;;;;20.74;35.18;99439.42;67891;1273;1016448;-65
2023/10/17 11:20:18;;;;;;;12.00;2.60;;;;;;;20.57;34.77;99435.78;67874;1273;1019328;-65
2023/10/17 11:23:22;;;;;;;14.90;2.70;;;;;;;20.12;35.53;99432.68;67909;1273;1016218;-66
2023/10/17 11:26:26;;;;;;;10.30;2.30;;;;;;;20.21;34.72;99432.77;67928;1273;1016549;-65
2023/10/17 11:29:28;;;;;;;8.60;2.40;;;;;;;20.38;34.71;99434.27;67918;1273;1015710;-65
2023/10/17 11:32:39;;;;;;;12.40;2.50;;;;;;;20.79;35.28;99427.61;67971;1273;1017047;-65
2023/10/17 11:35:42;;;;;;;12.70;2.70;;;;;;;21.45;35.46;99419.42;67880;1273;1016408;-64
2023/10/17 11:38:46;;;;;;;13.70;3.40;;;;;;;21.88;35.10;99415.11;67914;1273;1016423;-62
2023/10/17 11:41:53;;;;;;;12.70;2.70;;;;;;;22.39;34.83;99412.88;67911;1273;1016465;-62
2023/10/17 11:44:55;;;;;;;9.20;2.80;;;;;;;22.69;35.09;99412.31;67966;1273;1018621;-64
2023/10/17 11:47:58;;;;;;;12.00;2.40;;;;;;;23.03;34.27;99409.58;67888;1251;1016191;-64
2023/10/17 11:51:00;;;;;;;9.30;2.50;;;;;;;22.89;32.47;99409.05;67914;1273;1016415;-63
2023/10/17 11:54:05;;;;;;;10.00;2.10;;;;;;;22.95;34.04;99402.15;67933;1273;1016265;-64
2023/10/17 11:57:07;;;;;;;11.30;2.60;;;;;;;22.89;33.01;99403.66;67927;1273;1016326;-63
2023/10/17 12:00:19;;;;;;;11.80;2.80;;;;;;;22.32;33.68;99399.35;67913;1273;1016305;-64
2023/10/17 12:03:23;;;;;;;12.00;2.60;;;;;;;21.88;33.57;99394.56;67916;1273;1016483;-64
2023/10/17 12:06:27;;;;;;;11.20;2.60;;;;;;;21.52;34.15;99388.52;67908;1273;1016259;-64
2023/10/17 12:09:31;;;;;;;13.70;3.00;;;;;;;21.31;34.46;99386.05;67912;1273;1016118;-65
2023/10/17 12:12:34;;;;;;;11.50;2.60;;;;;;;21.24;34.61;99386.77;67880;1273;1016399;-63
2023/10/17 12:15:37;;;;;;;14.30;2.90;;;;;;;21.21;34.59;99383.48;67940;1273;1016495;-64
2023/10/17 12:18:39;;;;;;;12.10;3.00;;;;;;;21.19;34.64;99386.84;67934;1273;1016266;-64
2023/10/17 12:21:42;;;;;;;8.70;2.50;;;;;;;21.71;35.14;99382.75;67897;1264;1016415;-63
2023/10/17 12:24:45;;;;;;;11.70;2.50;;;;;;;22.12;34.51;99381.13;67922;1273;1016138;-63
2023/10/17 12:27:52;;;;;;;13.30;2.80;;;;;;;22.07;33.90;99376.14;67923;1273;1015917;-64
2023/10/17 12:30:55;;;;;;;13.50;3.20;;;;;;;21.71;34.27;99375.23;67955;1273;1016275;-64
2023/10/17 12:33:57;;;;;;;15.20;3.30;;;;;;;21.49;34.57;99375.95;67947;1273;1016384;-64
2023/10/17 12:37:03;;;;;;;16.20;3.50;;;;;;;21.34;34.57;99374.42;67888;1273;1018867;-64
2023/10/17 12:40:18;;;;;;;11.90;2.30;;;;;;;21.25;34.76;99372.36;67946;1273;1016264;-64
2023/10/17 12:43:21;;;;;;;15.00;2.50;;;;;;;21.76;34.48;99363.52;67922;1273;1016147;-64
2023/10/17 12:46:24;;;;;;;10.10;2.50;;;;;;;22.45;34.04;99366.79;67882;1273;1016437;-65
2023/10/17 12:49:27;;;;;;;14.20;3.10;;;;;;;22.81;32.81;99363.56;67915;1273;1016343;-65
2023/10/17 12:52:30;;;;;;;9.90;2.40;;;;;;;22.95;32.99;99365.64;67898;1273;1018020;-64
2023/10/17 12:55:32;;;;;;;14.60;3.30;;;;;;;22.68;32.75;99361.60;67912;1273;1016473;-65
2023/10/17 12:58:36;;;;;;;14.20;3.30;;;;;;;21.99;32.92;99360.02;67989;1273;1016704;-64
2023/10/17 13:01:39;;;;;;;16.70;3.00;;;;;;;21.43;33.56;99359.88;67895;1273;1018030;-65
2023/10/17 13:04:41;;;;;;;;;;;;;;;21.01;33.64;99357.48;67965;1273;1018571;-64
2023/10/17 13:07:43;;;;;;;15.40;4.30;;;;;;;20.56;34.18;99359.59;67935;1273;1016018;-64
2023/10/17 13:10:50;;;;;;;20.20;4.60;;;;;;;20.26;34.48;99352.81;67951;1273;1016861;-65
2023/10/17 13:13:53;;;;;;;16.10;3.30;;;;;;;20.29;34.84;99347.20;67936;1273;1016458;-64
2023/10/17 13:16:55;;;;;;;13.00;2.60;;;;;;;20.54;34.71;99341.46;67884;1273;1016584;-64
2023/10/17 13:19:58;;;;;;;10.30;2.30;;;;;;;20.26;33.92;99343.92;67890;1273;1017046;-64
2023/10/17 13:23:03;;;;;;;14.40;2.90;;;;;;;19.95;34.58;99336.65;67948;1273;1016191;-61
2023/10/17 13:26:05;;;;;;;13.80;3.10;;;;;;;19.69;34.86;99341.84;67905;1273;1016400;-64
2023/10/17 13:29:08;;;;;;;9.20;2.60;;;;;;;19.44;35.17;99337.30;67928;1273;1016975;-64
2023/10/17 13:32:10;;;;;;;11.10;2.50;;;;;;;19.37;34.85;99334.70;67925;1273;1016450;-64
2023/10/17 13:35:14;;;;;;;8.70;2.40;;;;;;;19.33;35.00;99329.58;67867;1273;1016179;-64
2023/10/17 13:38:17;;;;;;;15.10;3.00;;;;;;;19.50;35.12;99328.45;67938;1273;1016471;-64
2023/10/17 13:41:21;;;;;;;15.90;3.70;;;;;;;19.95;35.61;99320.66;67915;1273;1016210;-65
2023/10/17 13:44:23;;;;;;;15.80;3.60;;;;;;;20.43;35.12;99318.69;67897;1273;1018781;-64
2023/10/17 13:47:26;;;;;;;21.70;5.10;;;;;;;20.67;34.83;99315.35;67965;1273;1016281;-63
2023/10/17 13:50:30;;;;;;;25.20;6.90;;;;;;;20.60;34.85;99312.27;67938;1273;1016447;-64
2023/10/17 13:53:32;;;;;;;24.50;6.30;;;;;;;20.53;35.01;99310.48;67929;1273;1016385;-64
2023/10/17 13:56:35;;;;;;;13.20;3.40;;;;;;;20.42;35.08;99305.83;67863;1273;1016444;-64
2023/10/17 13:59:46;;;;;;;13.70;2.60;;;;;;;20.47;34.85;99302.47;67900;1273;1017083;-64
2023/10/17 14:02:49;;;;;;;14.10;3.00;;;;;;;20.12;35.05;99302.55;67908;1273;1016648;-64
2023/10/17 14:05:52;;;;;;;15.00;2.90;;;;;;;20.03;35.29;99301.78;67940;1273;1016771;-64
2023/10/17 14:08:55;;;;;;;12.00;3.10;;;;;;;19.90;35.41;99299.81;67971;1273;1016398;-64
2023/10/17 14:11:58;;;;;;;16.50;3.70;;;;;;;20.13;35.61;99296.48;67905;1273;1017957;-64
2023/10/17 14:15:00;;;;;;;11.30;2.80;;;;;;;20.35;35.40;99294.73;67939;1273;1015987;-65
2023/10/17 14:18:13;;;;;;;9.80;2.50;;;;;;;20.61;34.97;99289.98;67908;1273;1016484;-65
2023/10/17 14:21:23;;;;;;;11.70;3.00;;;;;;;20.78;34.65;99287.17;67902;1273;1016385;-64
2023/10/17 14:24:29;;;;;;;12.80;2.60;;;;;;;21.00;34.37;99283.23;67882;1273;1016736;-64
2023/10/17 14:27:32;;;;;;;18.50;4.70;;;;;;;21.14;34.21;99285.30;67876;1273;1016258;-64
2023/10/17 14:30:34;;;;;;;21.50;6.20;;;;;;;21.27;34.21;99287.40;67902;1273;1016361;-64
2023/10/17 14:33:37;;;;;;;18.60;5.90;;;;;;;21.37;34.14;99282.67;67932;1273;1016176;-64
2023/10/17 14:36:39;;;;;;;15.00;3.70;;;;;;;21.45;34.19;99282.44;67921;1273;1018047;-64
2023/10/17 14:39:41;;;;;;;15.40;4.30;;;;;;;21.60;33.62;99281.39;67896;1273;1016656;-66
2023/10/17 14:42:44;;;;;;;10.00;2.50;;;;;;;21.63;33.75;99276.73;67895;1273;1016470;-64
2023/10/17 14:45:47;;;;;;;10.50;2.10;;;;;;;21.56;33.00;99275.54;67934;1273;1016399;-64
2023/10/17 14:48:49;;;;;;;11.70;2.60;;;;;;;21.35;32.58;99277.04;67969;1273;1016404;-65
2023/10/17 14:51:52;;;;;;;7.50;2.10;;;;;;;21.03;32.70;99280.14;67900;1273;1017683;-64
2023/10/17 14:54:55;;;;;;;9.90;2.90;;;;;;;20.53;33.33;99272.31;67942;1273;1019606;-64
2023/10/17 14:57:57;;;;;;;11.10;2.60;;;;;;;20.17;33.36;99278.65;67907;1273;1016132;-64
2023/10/17 15:01:00;;;;;;;12.30;3.00;;;;;;;19.87;33.73;99282.12;67867;1273;1016611;-64
2023/10/17 15:04:02;;;;;;;11.30;3.10;;;;;;;19.73;33.88;99283.05;67876;1273;1015989;-64
2023/10/17 15:07:05;;;;;;;23.00;6.10;;;;;;;19.38;33.97;99282.89;67899;1273;1016784;-64
2023/10/17 15:10:11;;;;;;;59.60;17.70;;;;;;;19.17;34.07;99282.45;67933;1273;1016972;-64
2023/10/17 15:13:14;;;;;;;58.70;17.40;;;;;;;18.89;34.46;99286.52;67875;1273;1016366;-64
2023/10/17 15:16:16;;;;;;;74.70;23.20;;;;;;;18.69;34.72;99292.70;67887;1273;1016906;-64
2023/10/17 15:19:20;;;;;;;62.30;20.30;;;;;;;18.33;35.00;99295.77;67906;1273;1015931;-63
2023/10/17 15:22:22;;;;;;;35.50;11.40;;;;;;;18.03;35.20;99298.85;67875;1273;1016409;-65
2023/10/17 15:25:25;;;;;;;41.20;17.30;;;;;;;17.76;35.39;99300.84;67945;1273;1016466;-64